Time;durP1;ratioP1;P1;durP2;ratioP2;P2;SDS_P1;SDS_P2;PMS_P1;PMS_P2;Temp;Humidity;BMP_temperature;BMP_pressure;BME280_temperature;BME280_humidity;BME280_pressure;Samples;Min_cycle;Max_cycle;Signal;HPM_P1;HPM_P2
2022/08/25 00:00:07;;;;;;;0.20;0.20;;;;;;;25.23;61.27;101883.75;2007379;29;20058;-71
2022/08/25 00:01:16;;;;;;;0.20;0.20;;;;;;;25.20;61.34;101874.31;2001382;29;20061;-70
2022/08/25 00:02:27;;;;;;;0.20;0.20;;;;;;;25.20;61.15;101876.28;2001570;29;20156;-71
2022/08/25 00:03:32;;;;;;;0.20;0.20;;;;;;;25.15;60.85;101882.28;2006447;29;20154;-70
2022/08/25 00:04:45;;;;;;;0.17;0.17;;;;;;;25.13;60.63;101879.16;2006070;29;20067;-70
2022/08/25 00:05:57;;;;;;;0.20;0.20;;;;;;;25.07;61.82;101870.50;2007940;29;20125;-70
2022/08/25 00:07:03;;;;;;;0.10;0.10;;;;;;;25.10;61.13;101883.53;2005971;29;20049;-70
2022/08/25 00:08:08;;;;;;;0.10;0.10;;;;;;;25.02;60.77;101876.53;2005119;29;20539;-71
2022/08/25 00:09:16;;;;;;;0.20;0.20;;;;;;;24.98;60.95;101868.28;2002818;29;20078;-69
2022/08/25 00:10:21;;;;;;;0.10;0.10;;;;;;;24.92;61.02;101867.16;2007101;29;20088;-69
2022/08/25 00:11:28;;;;;;;0.20;0.20;;;;;;;24.89;60.97;101869.97;2005991;29;20429;-70
2022/08/25 00:12:32;;;;;;;0.20;0.20;;;;;;;24.82;61.00;101881.09;2006860;29;20053;-70
2022/08/25 00:13:41;;;;;;;0.20;0.20;;;;;;;24.80;61.38;101873.22;2007448;29;20060;-70
2022/08/25 00:14:46;;;;;;;0.20;0.20;;;;;;;24.76;61.38;101871.69;1998697;29;20061;-71
2022/08/25 00:15:58;;;;;;;0.20;0.20;;;;;;;24.73;60.75;101873.31;1997048;29;20137;-70
2022/08/25 00:17:03;;;;;;;0.20;0.20;;;;;;;24.69;61.26;101871.75;2007215;29;20119;-71
2022/08/25 00:18:05;;;;;;;0.10;0.10;;;;;;;24.67;60.96;101876.94;2006393;29;20073;-71
2022/08/25 00:19:24;;;;;;;0.20;0.20;;;;;;;24.63;61.05;101879.69;2006892;29;20085;-71
2022/08/25 00:20:31;;;;;;;0.20;0.20;;;;;;;24.58;60.79;101871.84;2003765;29;20061;-70
2022/08/25 00:21:35;;;;;;;0.20;0.20;;;;;;;24.55;60.97;101877.41;2002022;29;20054;-70
2022/08/25 00:22:46;;;;;;;0.20;0.20;;;;;;;24.53;61.15;101877.81;2001045;29;20161;-71
2022/08/25 00:23:51;;;;;;;0.20;0.20;;;;;;;24.55;60.71;101878.22;2005177;29;20674;-70
2022/08/25 00:24:55;;;;;;;0.20;0.20;;;;;;;24.48;61.22;101878.25;2007942;29;20053;-71
2022/08/25 00:26:00;;;;;;;0.20;0.20;;;;;;;24.51;60.79;101871.16;1998670;29;20061;-70
2022/08/25 00:27:17;;;;;;;0.20;0.20;;;;;;;24.45;60.66;101881.09;1997257;29;20176;-70
2022/08/25 00:28:23;;;;;;;0.20;0.20;;;;;;;24.38;60.75;101873.66;2007575;29;20132;-70
2022/08/25 00:29:28;;;;;;;0.20;0.20;;;;;;;24.33;61.06;101882.38;2005878;29;20046;-69
2022/08/25 00:30:35;;;;;;;0.20;0.20;;;;;;;24.32;60.86;101878.06;2008863;29;20533;-70
2022/08/25 00:31:41;;;;;;;0.20;0.20;;;;;;;24.31;60.78;101878.47;2008695;29;20418;-71
2022/08/25 00:32:47;;;;;;;0.20;0.20;;;;;;;24.29;60.81;101878.84;2003078;29;20058;-70
2022/08/25 00:34:00;;;;;;;0.20;0.20;;;;;;;24.29;60.96;101880.84;2002874;29;20054;-71
2022/08/25 00:35:05;;;;;;;0.20;0.20;;;;;;;24.32;60.43;101880.81;2007760;29;20569;-70
2022/08/25 00:36:18;;;;;;;0.20;0.20;;;;;;;24.27;60.63;101875.72;2004970;29;20052;-71
2022/08/25 00:37:26;;;;;;;0.30;0.30;;;;;;;24.25;60.53;101874.56;2008095;29;20046;-71
2022/08/25 00:38:32;;;;;;;0.20;0.20;;;;;;;24.23;60.35;101877.72;2008963;29;20144;-69
2022/08/25 00:39:38;;;;;;;0.10;0.10;;;;;;;24.23;60.53;101872.22;1998888;29;20498;-70
2022/08/25 00:41:04;;;;;;;0.20;0.20;;;;;;;24.22;60.30;101875.38;1999270;29;20098;-70
2022/08/25 00:42:19;;;;;;;0.28;0.28;;;;;;;24.19;60.57;101877.00;2001934;29;20053;-69
2022/08/25 00:43:25;;;;;;;0.20;0.20;;;;;;;24.16;60.37;101877.81;2006022;29;20477;-71
2022/08/25 00:44:37;;;;;;;0.20;0.20;;;;;;;24.15;60.59;101881.75;2006577;29;20088;-70
2022/08/25 00:45:41;;;;;;;0.20;0.20;;;;;;;24.19;60.31;101887.22;2007624;29;20124;-71
2022/08/25 00:46:48;;;;;;;0.20;0.20;;;;;;;24.19;60.40;101878.97;2007161;29;20053;-71
2022/08/25 00:47:52;;;;;;;0.20;0.20;;;;;;;24.14;60.54;101884.91;2001270;29;20069;-70
2022/08/25 00:49:03;;;;;;;0.20;0.20;;;;;;;24.13;60.45;101884.16;2007013;29;20089;-70
2022/08/25 00:50:10;;;;;;;0.20;0.20;;;;;;;24.07;60.43;101874.72;2007577;29;20078;-69
2022/08/25 00:51:22;;;;;;;0.20;0.20;;;;;;;24.08;60.32;101881.81;2005702;29;20097;-70
2022/08/25 00:52:34;;;;;;;0.20;0.20;;;;;;;24.08;60.64;101873.53;2006714;29;20080;-70
2022/08/25 00:53:38;;;;;;;0.20;0.20;;;;;;;24.08;60.38;101879.06;2007545;29;20057;-71
2022/08/25 00:54:50;;;;;;;0.20;0.20;;;;;;;24.09;60.37;101872.34;2008092;29;20118;-70
2022/08/25 00:55:58;;;;;;;0.10;0.10;;;;;;;24.07;60.38;101879.47;2005518;29;20057;-70
2022/08/25 00:57:08;;;;;;;0.10;0.10;;;;;;;24.08;60.22;101876.28;2008686;29;20064;-70
2022/08/25 00:58:17;;;;;;;0.20;0.20;;;;;;;24.06;60.28;101873.16;2006161;29;20332;-69
2022/08/25 00:59:23;;;;;;;0.20;0.20;;;;;;;24.08;59.83;101883.78;2006797;29;20064;-69
2022/08/25 01:00:31;;;;;;;0.20;0.20;;;;;;;24.07;59.96;101879.47;2007042;29;20097;-69
2022/08/25 01:01:43;;;;;;;0.10;0.10;;;;;;;24.06;59.82;101877.88;1999182;29;20054;-70
2022/08/25 01:02:47;;;;;;;0.20;0.20;;;;;;;24.03;59.85;101876.72;2000879;29;20058;-70
2022/08/25 01:03:51;;;;;;;0.20;0.20;;;;;;;24.06;59.88;101881.44;2000957;29;20058;-70
2022/08/25 01:05:30;;;;;;;0.15;0.15;;;;;;;23.98;59.55;101877.16;2000702;29;21356;-69
2022/08/25 01:06:38;;;;;;;0.20;0.20;;;;;;;24.03;59.63;101879.50;2005592;29;20450;-71
2022/08/25 01:07:43;;;;;;;0.15;0.15;;;;;;;24.02;59.41;101882.66;2000947;29;20117;-71
2022/08/25 01:08:46;;;;;;;0.30;0.30;;;;;;;24.02;59.47;101882.66;2002235;29;20057;-71
2022/08/25 01:09:52;;;;;;;0.20;0.20;;;;;;;24.05;59.46;101882.63;2000969;29;20069;-70
2022/08/25 01:10:57;;;;;;;0.20;0.20;;;;;;;24.04;59.37;101880.28;2005193;29;20058;-70
2022/08/25 01:12:00;;;;;;;0.20;0.20;;;;;;;24.05;59.25;101876.31;2005805;29;20148;-70
2022/08/25 01:13:08;;;;;;;0.20;0.20;;;;;;;24.05;59.23;101879.88;2006932;29;20065;-70
2022/08/25 01:14:21;;;;;;;0.20;0.20;;;;;;;24.04;58.91;101880.28;1992865;29;20069;-71
2022/08/25 01:15:23;;;;;;;0.20;0.20;;;;;;;24.02;59.20;101877.94;1998393;29;20054;-70
2022/08/25 01:16:27;;;;;;;0.20;0.20;;;;;;;24.02;59.08;101880.69;2008151;29;20053;-70
2022/08/25 01:17:33;;;;;;;0.20;0.20;;;;;;;24.03;59.11;101878.69;2005018;29;20145;-70
2022/08/25 01:18:46;;;;;;;0.20;0.20;;;;;;;24.00;58.81;101880.31;2007994;29;20120;-71
2022/08/25 01:19:49;;;;;;;0.20;0.20;;;;;;;23.98;58.99;101882.69;2008482;29;20462;-69
2022/08/25 01:20:53;;;;;;;0.20;0.20;;;;;;;23.98;59.02;101882.69;2008738;29;20521;-69
2022/08/25 01:21:56;;;;;;;0.30;0.30;;;;;;;23.94;58.88;101879.16;2000314;29;20117;-71
2022/08/25 01:22:59;;;;;;;0.20;0.20;;;;;;;23.95;58.88;101883.47;2000065;29;20098;-71
2022/08/25 01:24:03;;;;;;;0.20;0.20;;;;;;;23.93;59.03;101877.56;1999169;29;20083;-69
2022/08/25 01:25:19;;;;;;;0.20;0.20;;;;;;;23.92;58.79;101878.75;2002747;29;20049;-70
2022/08/25 01:26:25;;;;;;;0.20;0.20;;;;;;;23.88;58.56;101880.75;1999475;29;20058;-69
2022/08/25 01:27:31;;;;;;;0.20;0.20;;;;;;;23.85;58.63;101875.28;2000379;29;20050;-70
2022/08/25 01:28:35;;;;;;;0.20;0.20;;;;;;;23.86;58.79;101872.13;2002579;29;20414;-70
2022/08/25 01:29:38;;;;;;;0.20;0.20;;;;;;;23.87;58.57;101876.44;2007366;29;20477;-71
2022/08/25 01:30:41;;;;;;;0.20;0.20;;;;;;;23.81;58.63;101869.00;2008193;29;20062;-69
2022/08/25 01:31:44;;;;;;;0.20;0.20;;;;;;;23.81;58.51;101872.53;2002611;29;20061;-70
2022/08/25 01:32:48;;;;;;;0.20;0.20;;;;;;;23.78;58.37;101884.38;2002351;29;20222;-70
2022/08/25 01:33:50;;;;;;;0.20;0.20;;;;;;;23.76;58.40;101875.72;2002132;29;20119;-70
2022/08/25 01:34:52;;;;;;;0.20;0.20;;;;;;;23.73;58.31;101887.56;2007148;29;20061;-70
2022/08/25 01:35:56;;;;;;;0.20;0.20;;;;;;;23.70;58.53;101887.59;2009472;29;20117;-70
2022/08/25 01:36:59;;;;;;;0.20;0.20;;;;;;;23.66;58.25;101884.84;2010026;29;20057;-70
2022/08/25 01:38:03;;;;;;;0.20;0.20;;;;;;;23.66;58.39;101881.31;2007320;29;20458;-69
2022/08/25 01:39:06;;;;;;;0.30;0.30;;;;;;;23.64;58.30;101884.50;2009634;29;20058;-70
2022/08/25 01:40:09;;;;;;;0.28;0.28;;;;;;;23.62;58.16;101881.34;2008099;29;20121;-70
2022/08/25 01:41:12;;;;;;;0.20;0.20;;;;;;;23.59;58.01;101887.66;2004645;29;20079;-69
2022/08/25 01:42:33;;;;;;;0.10;0.10;;;;;;;23.49;58.07;101883.78;2005398;29;20113;-70
2022/08/25 01:43:38;;;;;;;0.20;0.20;;;;;;;23.48;57.96;101881.44;2002105;29;20061;-70
2022/08/25 01:44:43;;;;;;;0.25;0.25;;;;;;;23.42;58.24;101877.53;2004833;29;20069;-70
2022/08/25 01:45:48;;;;;;;0.20;0.20;;;;;;;23.40;58.00;101885.41;2003273;29;20521;-70
2022/08/25 01:46:52;;;;;;;0.20;0.20;;;;;;;23.34;58.22;101876.78;2004400;29;20057;-70
2022/08/25 01:47:57;;;;;;;0.20;0.20;;;;;;;23.28;58.17;101877.59;2009885;29;20053;-70
2022/08/25 01:49:00;;;;;;;0.20;0.20;;;;;;;23.27;58.03;101892.56;2009835;29;20050;-70
2022/08/25 01:50:11;;;;;;;0.20;0.20;;;;;;;23.25;58.14;101886.63;2002240;29;20050;-69
2022/08/25 01:51:20;;;;;;;0.20;0.20;;;;;;;23.18;58.47;101878.41;2002171;29;20065;-70
2022/08/25 01:52:30;;;;;;;0.20;0.20;;;;;;;23.17;58.07;101876.81;2002298;29;20076;-71
2022/08/25 01:53:34;;;;;;;0.30;0.30;;;;;;;23.15;58.49;101881.97;2006900;29;20053;-69
2022/08/25 01:54:39;;;;;;;0.20;0.20;;;;;;;23.13;58.20;101876.88;2007982;29;20593;-70
2022/08/25 01:55:52;;;;;;;0.20;0.20;;;;;;;23.10;58.03;101880.41;2002191;29;20069;-70
2022/08/25 01:56:58;;;;;;;0.20;0.20;;;;;;;23.08;58.39;101877.28;2007490;29;20057;-70
2022/08/25 01:58:01;;;;;;;0.20;0.20;;;;;;;23.08;58.33;101873.72;2007082;29;20065;-70
2022/08/25 01:59:06;;;;;;;0.20;0.20;;;;;;;23.08;57.77;101873.72;2008092;29;20057;-70
2022/08/25 02:00:17;;;;;;;0.20;0.20;;;;;;;23.07;57.85;101872.16;2009120;29;20057;-70
2022/08/25 02:01:25;;;;;;;0.20;0.20;;;;;;;23.04;58.09;101882.00;2004545;29;20720;-70
2022/08/25 02:02:35;;;;;;;0.20;0.20;;;;;;;23.04;57.92;101872.97;2008822;29;20064;-70
2022/08/25 02:03:49;;;;;;;0.20;0.20;;;;;;;23.03;57.96;101874.13;2002288;29;20137;-70
2022/08/25 02:04:55;;;;;;;0.20;0.20;;;;;;;23.00;57.86;101878.50;2002892;29;20057;-70
2022/08/25 02:06:00;;;;;;;0.30;0.30;;;;;;;23.06;57.78;101876.09;2001816;29;20054;-70
2022/08/25 02:07:08;;;;;;;0.20;0.20;;;;;;;23.03;57.96;101872.19;2002198;29;20117;-70
2022/08/25 02:08:13;;;;;;;0.20;0.20;;;;;;;23.00;57.76;101866.69;2008313;29;20462;-70
2022/08/25 02:09:17;;;;;;;0.20;0.20;;;;;;;23.00;57.59;101866.69;2009176;29;20092;-70
2022/08/25 02:10:22;;;;;;;0.20;0.20;;;;;;;23.01;57.37;101869.03;2009925;29;20437;-71
2022/08/25 02:11:26;;;;;;;0.20;0.20;;;;;;;23.01;57.33;101868.25;2008849;29;20585;-70
2022/08/25 02:12:31;;;;;;;0.20;0.20;;;;;;;22.98;57.34;101866.28;2008418;29;20061;-70
2022/08/25 02:13:34;;;;;;;0.30;0.30;;;;;;;22.95;57.56;101867.09;2007751;29;20119;-70
2022/08/25 02:14:39;;;;;;;0.20;0.20;;;;;;;22.95;57.38;101862.38;2008789;29;20455;-70
2022/08/25 02:15:48;;;;;;;0.30;0.30;;;;;;;22.92;57.39;101860.41;2004002;29;20083;-70
2022/08/25 02:16:54;;;;;;;0.20;0.20;;;;;;;22.88;57.50;101867.13;2007646;29;20076;-70
2022/08/25 02:17:59;;;;;;;0.20;0.20;;;;;;;22.83;57.70;101862.81;2008721;29;20490;-70
2022/08/25 02:19:05;;;;;;;0.30;0.30;;;;;;;22.82;57.68;101863.19;2007834;29;20049;-70
2022/08/25 02:20:10;;;;;;;0.30;0.30;;;;;;;22.82;57.18;101863.19;2009342;29;20056;-71
2022/08/25 02:21:16;;;;;;;0.30;0.30;;;;;;;22.81;57.23;101867.16;2008591;29;20057;-71
2022/08/25 02:22:23;;;;;;;0.20;0.20;;;;;;;22.79;57.16;101866.75;2004564;29;20061;-70
2022/08/25 02:23:28;;;;;;;0.20;0.20;;;;;;;22.78;57.03;101867.94;2003931;29;20049;-70
2022/08/25 02:24:33;;;;;;;0.20;0.20;;;;;;;22.79;57.06;101867.53;2007980;29;20061;-69
2022/08/25 02:25:39;;;;;;;0.20;0.20;;;;;;;22.77;56.97;101864.41;2005670;29;20065;-69
2022/08/25 02:26:44;;;;;;;0.20;0.20;;;;;;;22.77;57.21;101863.63;2006195;29;20081;-69
2022/08/25 02:27:50;;;;;;;0.15;0.15;;;;;;;22.73;57.25;101857.34;2009140;29;20057;-70
2022/08/25 02:28:54;;;;;;;0.30;0.30;;;;;;;22.69;57.08;101857.34;2008291;29;20080;-71
2022/08/25 02:30:00;;;;;;;0.22;0.22;;;;;;;22.67;57.17;101854.22;2009482;29;20073;-71
2022/08/25 02:31:08;;;;;;;0.20;0.20;;;;;;;22.65;57.33;101850.28;2009384;29;20061;-69
2022/08/25 02:32:14;;;;;;;0.30;0.30;;;;;;;22.67;56.92;101856.19;2009322;29;20070;-69
2022/08/25 02:33:30;;;;;;;0.20;0.20;;;;;;;22.61;57.14;101849.50;2009495;29;20088;-70
2022/08/25 02:34:35;;;;;;;0.20;0.20;;;;;;;22.62;57.16;101856.59;2007753;29;20264;-69
2022/08/25 02:35:40;;;;;;;0.20;0.20;;;;;;;22.59;57.22;101852.66;2009464;29;20053;-70
2022/08/25 02:36:48;;;;;;;0.15;0.15;;;;;;;22.54;57.37;101849.53;2009409;29;20414;-70
2022/08/25 02:37:54;;;;;;;0.20;0.20;;;;;;;22.52;56.92;101843.63;2009890;29;20057;-70
2022/08/25 02:39:03;;;;;;;0.20;0.20;;;;;;;22.48;57.42;101848.34;2008253;29;20092;-72
2022/08/25 02:40:09;;;;;;;0.20;0.20;;;;;;;22.47;57.31;101855.78;2002865;29;20054;-69
2022/08/25 02:41:18;;;;;;;0.10;0.10;;;;;;;22.45;57.05;101852.69;2009563;29;20053;-70
2022/08/25 02:42:23;;;;;;;0.20;0.20;;;;;;;22.43;57.25;101857.78;1999770;29;20632;-69
2022/08/25 02:43:29;;;;;;;0.20;0.20;;;;;;;22.42;57.22;101852.69;1999781;29;20042;-70
2022/08/25 02:44:34;;;;;;;0.20;0.20;;;;;;;22.41;57.01;101857.38;2009589;29;20459;-70
2022/08/25 02:45:38;;;;;;;0.13;0.13;;;;;;;22.42;57.48;101852.69;2008237;29;20694;-70
2022/08/25 02:46:41;;;;;;;0.20;0.20;;;;;;;22.41;57.04;101851.09;2007803;29;20125;-70
2022/08/25 02:47:48;;;;;;;0.20;0.20;;;;;;;22.39;57.00;101853.47;2005064;29;20065;-70
2022/08/25 02:48:52;;;;;;;0.30;0.30;;;;;;;22.33;57.27;101860.53;1999523;29;20422;-70
2022/08/25 02:49:58;;;;;;;0.13;0.13;;;;;;;22.34;57.40;101857.41;2001253;29;20577;-71
2022/08/25 02:51:03;;;;;;;0.20;0.20;;;;;;;22.32;57.25;101854.25;2002732;29;20096;-68
2022/08/25 02:52:10;;;;;;;0.10;0.10;;;;;;;22.31;56.85;101851.91;2000743;29;20054;-70
2022/08/25 02:53:17;;;;;;;0.20;0.20;;;;;;;22.31;56.95;101857.41;1993672;29;20073;-71
2022/08/25 02:54:22;;;;;;;0.20;0.20;;;;;;;22.30;57.20;101861.31;1998972;29;20113;-70
2022/08/25 02:55:28;;;;;;;0.20;0.20;;;;;;;22.31;57.03;101857.41;2006835;29;20430;-71
2022/08/25 02:56:41;;;;;;;0.20;0.20;;;;;;;22.29;56.79;101862.53;2009439;29;20052;-67
2022/08/25 02:57:47;;;;;;;0.10;0.10;;;;;;;22.24;57.14;101852.69;2002593;29;20085;-67
2022/08/25 02:58:54;;;;;;;0.20;0.20;;;;;;;22.26;57.18;101860.56;2008495;29;20128;-67
2022/08/25 02:59:58;;;;;;;0.20;0.20;;;;;;;22.26;56.64;101855.06;2009224;29;20046;-66
2022/08/25 03:01:06;;;;;;;0.10;0.10;;;;;;;22.27;56.73;101862.13;2007823;29;20057;-67
2022/08/25 03:02:10;;;;;;;0.20;0.20;;;;;;;22.25;57.19;101859.00;1996320;29;20133;-64
2022/08/25 03:03:18;;;;;;;0.20;0.20;;;;;;;22.23;56.90;101857.41;1999278;29;20097;-65
2022/08/25 03:04:22;;;;;;;0.20;0.20;;;;;;;22.23;56.85;101858.59;2002777;29;20057;-65
2022/08/25 03:05:27;;;;;;;0.20;0.20;;;;;;;22.24;56.76;101852.69;2005357;29;20092;-65
2022/08/25 03:06:31;;;;;;;0.20;0.20;;;;;;;22.21;56.94;101859.75;2006796;29;20065;-66
2022/08/25 03:07:37;;;;;;;0.10;0.10;;;;;;;22.23;56.84;101862.91;2002527;29;20054;-65
2022/08/25 03:08:43;;;;;;;0.10;0.10;;;;;;;22.22;57.24;101863.31;2009248;29;20057;-66
2022/08/25 03:09:48;;;;;;;0.20;0.20;;;;;;;22.21;57.54;101859.00;2007763;29;20544;-65
2022/08/25 03:11:01;;;;;;;0.20;0.20;;;;;;;22.23;57.05;101866.84;2009455;29;20121;-66
2022/08/25 03:12:06;;;;;;;0.20;0.20;;;;;;;22.23;57.37;101861.34;2007676;29;20465;-65
2022/08/25 03:13:09;;;;;;;0.20;0.20;;;;;;;22.21;57.14;101859.75;2009022;29;20109;-66
2022/08/25 03:14:13;;;;;;;0.20;0.20;;;;;;;22.23;57.05;101867.66;2007402;29;20061;-66
2022/08/25 03:15:17;;;;;;;0.20;0.20;;;;;;;22.22;57.43;101871.56;2001161;29;20545;-66
2022/08/25 03:16:22;;;;;;;0.10;0.10;;;;;;;22.13;57.96;101863.72;2007035;29;20049;-65
2022/08/25 03:17:30;;;;;;;0.20;0.20;;;;;;;22.07;57.63;101859.78;2008949;29;20091;-65
2022/08/25 03:18:40;;;;;;;0.22;0.22;;;;;;;22.03;58.09;101853.50;2007890;29;20394;-65
2022/08/25 03:19:45;;;;;;;0.20;0.20;;;;;;;21.97;58.14;101859.78;2005135;29;20060;-65
2022/08/25 03:20:49;;;;;;;0.20;0.20;;;;;;;21.91;57.88;101855.88;2007805;29;20202;-65
2022/08/25 03:21:55;;;;;;;0.28;0.28;;;;;;;21.87;57.90;101846.81;2009115;29;20124;-66
2022/08/25 03:22:59;;;;;;;0.22;0.22;;;;;;;21.80;58.78;101853.09;2007135;29;20076;-65
2022/08/25 03:24:06;;;;;;;0.20;0.20;;;;;;;21.74;58.31;101843.63;2002212;29;20054;-65
2022/08/25 03:26:54;;;;;;;0.20;0.20;;;;;;;21.60;59.07;101843.63;2001544;29;20054;-65
2022/08/25 03:28:01;;;;;;;0.20;0.20;;;;;;;21.56;59.02;101845.59;2009100;29;20054;-65
2022/08/25 03:29:07;;;;;;;0.20;0.20;;;;;;;21.55;59.30;101844.00;2008679;29;20080;-65
2022/08/25 03:30:12;;;;;;;0.20;0.20;;;;;;;21.55;58.86;101835.00;2008817;29;20053;-65
2022/08/25 03:31:21;;;;;;;0.20;0.20;;;;;;;21.51;58.78;101837.72;2008396;29;20053;-66
2022/08/25 03:32:25;;;;;;;0.20;0.20;;;;;;;21.50;58.91;101841.63;2006930;29;20053;-64
2022/08/25 03:33:30;;;;;;;0.20;0.20;;;;;;;21.51;59.10;101839.69;2008596;29;20141;-65
2022/08/25 03:34:34;;;;;;;0.20;0.20;;;;;;;21.54;58.90;101836.16;2009263;29;20049;-65
2022/08/25 03:35:37;;;;;;;0.20;0.20;;;;;;;21.49;58.74;101831.84;2007480;29;20084;-65
2022/08/25 03:36:43;;;;;;;0.20;0.20;;;;;;;21.55;58.58;101833.00;2006109;29;20145;-65
2022/08/25 03:37:48;;;;;;;0.17;0.17;;;;;;;21.53;58.72;101840.09;2009231;29;20518;-64
2022/08/25 03:38:55;;;;;;;0.20;0.20;;;;;;;21.49;59.00;101837.34;2007509;29;20092;-65
2022/08/25 03:40:09;;;;;;;0.10;0.10;;;;;;;21.42;58.91;101831.81;2006084;29;20109;-66
2022/08/25 03:41:22;;;;;;;0.17;0.17;;;;;;;21.42;58.74;101842.03;2008648;29;20057;-65
2022/08/25 03:42:31;;;;;;;0.20;0.20;;;;;;;21.38;59.21;101838.47;2001403;29;20050;-66
2022/08/25 03:43:35;;;;;;;0.20;0.20;;;;;;;21.39;59.11;101835.34;2004581;29;20076;-65
2022/08/25 03:44:41;;;;;;;0.20;0.20;;;;;;;21.39;58.67;101832.59;2009101;29;20132;-65
2022/08/25 03:45:47;;;;;;;0.20;0.20;;;;;;;21.39;58.82;101832.59;2004300;29;20099;-65
2022/08/25 03:46:53;;;;;;;0.25;0.25;;;;;;;21.41;58.66;101837.69;2008223;29;20555;-66
2022/08/25 03:47:58;;;;;;;0.20;0.20;;;;;;;21.39;59.18;101829.84;2008534;29;20574;-67
2022/08/25 03:49:05;;;;;;;0.20;0.20;;;;;;;21.39;58.79;101831.81;2007493;29;20049;-65
2022/08/25 03:50:13;;;;;;;0.20;0.20;;;;;;;21.39;58.75;101829.84;2007099;29;20425;-65
2022/08/25 03:51:22;;;;;;;0.20;0.20;;;;;;;21.40;58.75;101830.63;2006507;29;20358;-65
2022/08/25 03:52:27;;;;;;;0.20;0.20;;;;;;;21.38;58.95;101828.28;2002260;29;20049;-65
2022/08/25 03:53:33;;;;;;;0.30;0.30;;;;;;;21.39;58.55;101827.09;2000443;29;20066;-66
2022/08/25 03:54:37;;;;;;;0.20;0.20;;;;;;;21.36;59.05;101830.63;2000128;29;20468;-67
2022/08/25 03:55:45;;;;;;;0.20;0.20;;;;;;;21.35;58.89;101829.06;2006373;29;20058;-65
2022/08/25 03:56:48;;;;;;;0.28;0.28;;;;;;;21.33;59.00;101830.63;2008792;29;20132;-66
2022/08/25 03:57:56;;;;;;;0.20;0.20;;;;;;;21.34;59.21;101822.00;2007689;29;20057;-65
2022/08/25 03:59:00;;;;;;;0.30;0.30;;;;;;;21.33;58.66;101820.41;2007462;29;20061;-65
2022/08/25 04:00:11;;;;;;;0.30;0.30;;;;;;;21.36;58.68;101827.13;2007298;29;20188;-65
2022/08/25 04:01:15;;;;;;;0.20;0.20;;;;;;;21.35;58.65;101826.31;2003216;29;20506;-65
2022/08/25 04:02:21;;;;;;;0.28;0.28;;;;;;;21.36;58.97;101830.63;2008640;29;20050;-65
2022/08/25 04:03:24;;;;;;;0.30;0.30;;;;;;;21.36;58.48;101825.13;2001580;29;20463;-65
2022/08/25 04:04:28;;;;;;;0.30;0.30;;;;;;;21.34;58.96;101827.50;2005668;29;20065;-65
2022/08/25 04:05:32;;;;;;;0.20;0.20;;;;;;;21.35;58.50;101826.31;2004396;29;20065;-66
2022/08/25 04:06:39;;;;;;;0.30;0.30;;;;;;;21.37;58.38;101820.44;2008481;29;20053;-65
2022/08/25 04:07:45;;;;;;;0.25;0.25;;;;;;;21.34;58.47;101822.00;2001369;29;20046;-65
2022/08/25 04:08:51;;;;;;;0.30;0.30;;;;;;;21.30;58.88;101818.44;2005933;29;20053;-65
2022/08/25 04:09:55;;;;;;;0.28;0.28;;;;;;;21.30;58.74;101814.91;2001799;29;20069;-65
2022/08/25 04:11:08;;;;;;;0.20;0.20;;;;;;;21.25;58.95;101818.06;2008759;29;20064;-65
2022/08/25 04:12:13;;;;;;;0.30;0.30;;;;;;;21.24;59.20;101811.78;2008202;29;20049;-65
2022/08/25 04:13:22;;;;;;;0.30;0.30;;;;;;;21.19;58.95;101803.13;2003783;29;20486;-65
2022/08/25 04:14:25;;;;;;;0.30;0.30;;;;;;;21.18;59.21;101818.81;2008859;29;20054;-65
2022/08/25 04:15:30;;;;;;;0.20;0.20;;;;;;;21.18;59.38;101812.53;2008708;29;20418;-64
2022/08/25 04:16:35;;;;;;;0.30;0.30;;;;;;;21.18;59.16;101813.34;2008214;29;20081;-65
2022/08/25 04:17:41;;;;;;;0.20;0.20;;;;;;;21.17;58.84;101806.25;2007071;29;20058;-66
2022/08/25 04:18:49;;;;;;;0.20;0.20;;;;;;;21.12;59.22;101806.63;2008693;29;20501;-65
2022/08/25 04:19:54;;;;;;;0.20;0.20;;;;;;;21.09;59.59;101812.91;2008794;29;20078;-65
2022/08/25 04:21:05;;;;;;;0.22;0.22;;;;;;;21.04;59.25;101807.00;2008610;29;20057;-65
2022/08/25 04:22:10;;;;;;;0.30;0.30;;;;;;;21.05;59.62;101809.38;2007625;29;20049;-65
2022/08/25 04:23:14;;;;;;;0.30;0.30;;;;;;;21.02;59.74;101807.41;2008807;29;20056;-65
2022/08/25 04:24:20;;;;;;;0.30;0.30;;;;;;;21.01;59.61;101814.03;2008489;29;20113;-66
2022/08/25 04:25:24;;;;;;;0.30;0.30;;;;;;;20.98;59.54;101806.59;2000961;29;20084;-65
2022/08/25 04:26:33;;;;;;;0.30;0.30;;;;;;;20.96;59.59;101814.44;2008923;29;20089;-65
2022/08/25 04:27:40;;;;;;;0.30;0.30;;;;;;;20.92;59.90;101804.56;2007466;29;20487;-66
2022/08/25 04:28:46;;;;;;;0.20;0.20;;;;;;;20.91;60.11;101809.28;2003270;29;20859;-66
2022/08/25 04:29:49;;;;;;;0.30;0.30;;;;;;;20.92;59.97;101804.56;2007979;29;20049;-66
2022/08/25 04:30:53;;;;;;;0.20;0.20;;;;;;;20.90;60.02;101807.69;2008612;29;20079;-66
2022/08/25 04:31:57;;;;;;;0.30;0.30;;;;;;;20.91;59.81;101806.56;2008469;29;20080;-65
2022/08/25 04:33:06;;;;;;;0.40;0.40;;;;;;;20.94;59.94;101807.72;2007632;29;20091;-65
2022/08/25 04:34:11;;;;;;;0.20;0.20;;;;;;;20.92;60.05;101808.09;2008719;29;20053;-66
2022/08/25 04:35:33;;;;;;;0.30;0.30;;;;;;;20.94;60.00;101808.50;2008703;29;20239;-65
2022/08/25 04:36:38;;;;;;;0.30;0.30;;;;;;;20.94;59.79;101808.50;2008620;29;20116;-66
2022/08/25 04:37:43;;;;;;;0.30;0.30;;;;;;;20.92;59.99;101812.81;2008773;29;20570;-65
2022/08/25 04:38:52;;;;;;;0.38;0.38;;;;;;;20.86;60.14;101806.13;2007322;29;20494;-66
2022/08/25 04:40:00;;;;;;;0.30;0.30;;;;;;;20.82;60.18;101806.09;2008449;29;20054;-66
2022/08/25 04:41:09;;;;;;;0.30;0.30;;;;;;;20.77;60.28;101798.25;2007031;29;20143;-65
2022/08/25 04:42:19;;;;;;;0.30;0.30;;;;;;;20.75;60.30;101798.66;2008661;29;20058;-66
2022/08/25 04:43:22;;;;;;;0.40;0.40;;;;;;;20.68;60.88;101795.06;2008182;29;20061;-66
2022/08/25 04:44:26;;;;;;;0.40;0.40;;;;;;;20.67;60.78;101799.78;2006208;29;20053;-65
2022/08/25 04:45:44;;;;;;;0.25;0.25;;;;;;;20.63;60.70;101798.19;2008144;29;20414;-66
2022/08/25 04:46:52;;;;;;;0.35;0.35;;;;;;;20.63;61.05;101795.44;2005016;29;20061;-66
2022/08/25 04:48:00;;;;;;;0.40;0.40;;;;;;;20.62;60.76;101794.66;2008332;29;20124;-66
2022/08/25 04:49:04;;;;;;;0.40;0.40;;;;;;;20.60;61.09;101799.75;2001099;29;20106;-66
2022/08/25 04:50:13;;;;;;;0.40;0.40;;;;;;;20.58;60.98;101801.31;1998718;29;20539;-66
2022/08/25 04:51:22;;;;;;;0.40;0.40;;;;;;;20.54;61.06;101801.28;1999932;29;20526;-66
2022/08/25 04:52:28;;;;;;;0.35;0.35;;;;;;;20.51;61.10;101796.56;2001287;29;20046;-66
2022/08/25 04:53:37;;;;;;;0.40;0.40;;;;;;;20.47;61.39;101795.00;2007299;29;20049;-66
2022/08/25 04:54:47;;;;;;;0.40;0.40;;;;;;;20.44;61.40;101796.53;2005683;29;20486;-66
2022/08/25 04:55:56;;;;;;;0.40;0.40;;;;;;;20.46;61.55;101798.88;2008832;29;20133;-66
2022/08/25 04:57:06;;;;;;;0.40;0.40;;;;;;;20.45;61.52;101794.56;2004561;29;20054;-66
2022/08/25 04:58:18;;;;;;;0.40;0.40;;;;;;;20.48;61.40;101793.81;2007241;29;20083;-67
2022/08/25 04:59:23;;;;;;;0.40;0.40;;;;;;;20.50;61.37;101797.72;2008659;29;20589;-63
2022/08/25 05:00:39;;;;;;;0.32;0.32;;;;;;;20.52;61.12;101803.63;2000517;29;20110;-65
2022/08/25 05:01:46;;;;;;;0.30;0.30;;;;;;;20.55;61.03;101800.09;2000198;29;20054;-65
2022/08/25 05:02:56;;;;;;;0.40;0.40;;;;;;;20.57;61.26;101806.00;2005355;29;20110;-65
2022/08/25 05:04:05;;;;;;;0.40;0.40;;;;;;;20.58;61.29;101806.81;2008760;29;20049;-65
2022/08/25 05:05:13;;;;;;;0.40;0.40;;;;;;;20.58;61.12;101798.56;2002593;29;20066;-65
2022/08/25 05:06:20;;;;;;;0.40;0.40;;;;;;;20.54;61.45;101800.50;1999349;29;20125;-66
2022/08/25 05:07:25;;;;;;;0.30;0.30;;;;;;;20.52;61.39;101794.59;1988325;29;20055;-65
2022/08/25 05:08:28;;;;;;;0.40;0.40;;;;;;;20.49;61.38;101792.63;2002348;29;20062;-65
2022/08/25 05:09:33;;;;;;;0.40;0.40;;;;;;;20.51;61.61;101790.28;2009149;29;20080;-65
2022/08/25 05:10:39;;;;;;;0.30;0.30;;;;;;;20.50;61.63;101794.97;2009950;29;20064;-66
2022/08/25 05:11:46;;;;;;;0.40;0.40;;;;;;;20.50;61.74;101794.22;2010123;29;20089;-64